sensor_id;sensor_type;location;lat;lon;timestamp;temperature;humidity
24744;DHT22;12844;52.110;5.548;2023-07-13T00:01:47;26.00;54.30
24744;DHT22;12844;52.110;5.548;2023-07-13T00:04:16;26.00;54.20
24744;DHT22;12844;52.110;5.548;2023-07-13T00:06:42;26.00;54.40
24744;DHT22;12844;52.110;5.548;2023-07-13T00:09:13;26.00;54.50
24744;DHT22;12844;52.110;5.548;2023-07-13T00:11:40;26.00;54.40
24744;DHT22;12844;52.110;5.548;2023-07-13T00:14:07;26.00;54.50
24744;DHT22;12844;52.110;5.548;2023-07-13T00:16:38;26.00;54.60
24744;DHT22;12844;52.110;5.548;2023-07-13T00:19:04;26.00;55.30
24744;DHT22;12844;52.110;5.548;2023-07-13T00:21:30;25.90;54.60
24744;DHT22;12844;52.110;5.548;2023-07-13T00:23:56;26.00;54.70
24744;DHT22;12844;52.110;5.548;2023-07-13T00:26:22;26.00;54.50
24744;DHT22;12844;52.110;5.548;2023-07-13T00:28:48;26.00;54.30
24744;DHT22;12844;52.110;5.548;2023-07-13T00:31:14;26.00;54.20
24744;DHT22;12844;52.110;5.548;2023-07-13T00:33:40;25.90;54.30
24744;DHT22;12844;52.110;5.548;2023-07-13T00:36:08;26.00;54.30
24744;DHT22;12844;52.110;5.548;2023-07-13T00:38:33;25.90;54.20
24744;DHT22;12844;52.110;5.548;2023-07-13T00:40:59;25.90;54.50
24744;DHT22;12844;52.110;5.548;2023-07-13T00:43:26;26.00;54.50
24744;DHT22;12844;52.110;5.548;2023-07-13T00:48:31;25.90;54.60
24744;DHT22;12844;52.110;5.548;2023-07-13T00:50:59;25.90;54.50
24744;DHT22;12844;52.110;5.548;2023-07-13T00:53:26;25.90;54.50
24744;DHT22;12844;52.110;5.548;2023-07-13T00:55:54;25.90;54.50
24744;DHT22;12844;52.110;5.548;2023-07-13T00:58:20;25.90;54.50
24744;DHT22;12844;52.110;5.548;2023-07-13T01:00:47;25.90;54.60
24744;DHT22;12844;52.110;5.548;2023-07-13T01:03:14;25.90;54.50
24744;DHT22;12844;52.110;5.548;2023-07-13T01:05:40;25.80;54.40
24744;DHT22;12844;52.110;5.548;2023-07-13T01:08:06;25.90;54.50
24744;DHT22;12844;52.110;5.548;2023-07-13T01:10:32;25.80;54.50
24744;DHT22;12844;52.110;5.548;2023-07-13T01:13:07;25.90;54.50
24744;DHT22;12844;52.110;5.548;2023-07-13T01:18:15;25.80;55.00
24744;DHT22;12844;52.110;5.548;2023-07-13T01:20:46;25.80;54.40
24744;DHT22;12844;52.110;5.548;2023-07-13T01:23:13;25.80;54.30
24744;DHT22;12844;52.110;5.548;2023-07-13T01:25:38;25.80;54.30
24744;DHT22;12844;52.110;5.548;2023-07-13T01:28:06;25.80;54.30
24744;DHT22;12844;52.110;5.548;2023-07-13T01:30:35;25.80;54.20
24744;DHT22;12844;52.110;5.548;2023-07-13T01:33:00;25.80;54.10
24744;DHT22;12844;52.110;5.548;2023-07-13T01:35:27;25.80;54.20
24744;DHT22;12844;52.110;5.548;2023-07-13T01:37:53;25.80;54.20
24744;DHT22;12844;52.110;5.548;2023-07-13T01:40:19;25.80;54.10
24744;DHT22;12844;52.110;5.548;2023-07-13T01:42:45;25.80;54.10
24744;DHT22;12844;52.110;5.548;2023-07-13T01:45:11;25.80;54.10
24744;DHT22;12844;52.110;5.548;2023-07-13T01:47:37;25.80;54.10
24744;DHT22;12844;52.110;5.548;2023-07-13T01:50:03;25.80;54.10
24744;DHT22;12844;52.110;5.548;2023-07-13T01:52:29;25.80;54.10
24744;DHT22;12844;52.110;5.548;2023-07-13T01:54:54;25.80;54.10
24744;DHT22;12844;52.110;5.548;2023-07-13T01:57:20;25.80;54.10
24744;DHT22;12844;52.110;5.548;2023-07-13T01:59:46;25.80;54.10
24744;DHT22;12844;52.110;5.548;2023-07-13T02:02:12;25.80;54.00
24744;DHT22;12844;52.110;5.548;2023-07-13T02:04:37;25.70;54.00
24744;DHT22;12844;52.110;5.548;2023-07-13T02:07:03;25.70;54.00
24744;DHT22;12844;52.110;5.548;2023-07-13T02:09:29;25.70;54.00
24744;DHT22;12844;52.110;5.548;2023-07-13T02:11:54;25.80;54.00
24744;DHT22;12844;52.110;5.548;2023-07-13T02:14:20;25.70;53.90
24744;DHT22;12844;52.110;5.548;2023-07-13T02:16:45;25.70;54.00
24744;DHT22;12844;52.110;5.548;2023-07-13T02:19:11;25.70;54.00
24744;DHT22;12844;52.110;5.548;2023-07-13T02:21:37;25.70;53.90
24744;DHT22;12844;52.110;5.548;2023-07-13T02:24:03;25.70;54.00
24744;DHT22;12844;52.110;5.548;2023-07-13T02:26:28;25.70;53.90
24744;DHT22;12844;52.110;5.548;2023-07-13T02:28:54;25.70;53.90
24744;DHT22;12844;52.110;5.548;2023-07-13T02:31:20;25.70;54.00
24744;DHT22;12844;52.110;5.548;2023-07-13T02:33:46;25.70;53.90
24744;DHT22;12844;52.110;5.548;2023-07-13T02:36:12;25.60;53.80
24744;DHT22;12844;52.110;5.548;2023-07-13T02:38:39;25.70;53.90
24744;DHT22;12844;52.110;5.548;2023-07-13T02:41:06;25.70;53.90
24744;DHT22;12844;52.110;5.548;2023-07-13T02:43:33;25.70;54.00
24744;DHT22;12844;52.110;5.548;2023-07-13T02:46:00;25.60;53.80
24744;DHT22;12844;52.110;5.548;2023-07-13T02:48:32;25.70;53.90
24744;DHT22;12844;52.110;5.548;2023-07-13T02:50:58;25.70;53.90
24744;DHT22;12844;52.110;5.548;2023-07-13T02:53:24;25.60;53.80
24744;DHT22;12844;52.110;5.548;2023-07-13T02:55:49;25.60;53.90
24744;DHT22;12844;52.110;5.548;2023-07-13T02:58:15;25.60;53.90
24744;DHT22;12844;52.110;5.548;2023-07-13T03:00:45;25.60;53.90
24744;DHT22;12844;52.110;5.548;2023-07-13T03:03:12;25.60;53.80
24744;DHT22;12844;52.110;5.548;2023-07-13T03:05:41;25.60;53.80
24744;DHT22;12844;52.110;5.548;2023-07-13T03:08:08;25.60;53.90
24744;DHT22;12844;52.110;5.548;2023-07-13T03:10:34;25.60;53.80
24744;DHT22;12844;52.110;5.548;2023-07-13T03:13:00;25.60;53.90
24744;DHT22;12844;52.110;5.548;2023-07-13T03:15:27;25.60;53.90
24744;DHT22;12844;52.110;5.548;2023-07-13T03:17:52;25.60;53.90
24744;DHT22;12844;52.110;5.548;2023-07-13T03:20:18;25.60;53.90
24744;DHT22;12844;52.110;5.548;2023-07-13T03:22:45;25.60;53.90
24744;DHT22;12844;52.110;5.548;2023-07-13T03:25:11;25.60;53.90
24744;DHT22;12844;52.110;5.548;2023-07-13T03:27:37;25.60;53.90
24744;DHT22;12844;52.110;5.548;2023-07-13T03:30:04;25.50;53.80
24744;DHT22;12844;52.110;5.548;2023-07-13T03:32:30;25.60;53.90
24744;DHT22;12844;52.110;5.548;2023-07-13T03:34:55;25.50;53.80
24744;DHT22;12844;52.110;5.548;2023-07-13T03:37:21;25.50;53.80
24744;DHT22;12844;52.110;5.548;2023-07-13T03:39:47;25.50;53.90
24744;DHT22;12844;52.110;5.548;2023-07-13T03:42:12;25.50;53.90
24744;DHT22;12844;52.110;5.548;2023-07-13T03:44:40;25.50;53.90
24744;DHT22;12844;52.110;5.548;2023-07-13T03:47:05;25.50;53.90
24744;DHT22;12844;52.110;5.548;2023-07-13T03:49:31;25.50;53.90
24744;DHT22;12844;52.110;5.548;2023-07-13T03:51:57;25.50;53.90
24744;DHT22;12844;52.110;5.548;2023-07-13T03:54:23;25.50;53.90
24744;DHT22;12844;52.110;5.548;2023-07-13T03:56:48;25.50;53.90
24744;DHT22;12844;52.110;5.548;2023-07-13T03:59:14;25.50;53.90
24744;DHT22;12844;52.110;5.548;2023-07-13T04:01:40;25.50;53.90
24744;DHT22;12844;52.110;5.548;2023-07-13T04:04:05;25.50;53.90
24744;DHT22;12844;52.110;5.548;2023-07-13T04:06:32;25.50;53.90
24744;DHT22;12844;52.110;5.548;2023-07-13T04:09:00;25.50;53.90
24744;DHT22;12844;52.110;5.548;2023-07-13T04:11:29;25.50;53.90
24744;DHT22;12844;52.110;5.548;2023-07-13T04:13:55;25.50;53.90
24744;DHT22;12844;52.110;5.548;2023-07-13T04:16:21;25.50;53.90
24744;DHT22;12844;52.110;5.548;2023-07-13T04:18:48;25.50;53.90
24744;DHT22;12844;52.110;5.548;2023-07-13T04:21:15;25.50;53.90
24744;DHT22;12844;52.110;5.548;2023-07-13T04:23:40;25.50;53.90
24744;DHT22;12844;52.110;5.548;2023-07-13T04:26:06;25.50;53.90
24744;DHT22;12844;52.110;5.548;2023-07-13T04:28:32;25.50;53.90
24744;DHT22;12844;52.110;5.548;2023-07-13T04:30:58;25.50;53.90
24744;DHT22;12844;52.110;5.548;2023-07-13T04:33:24;25.50;53.90
24744;DHT22;12844;52.110;5.548;2023-07-13T04:35:51;25.50;53.90
24744;DHT22;12844;52.110;5.548;2023-07-13T04:38:20;25.50;53.90
24744;DHT22;12844;52.110;5.548;2023-07-13T04:40:46;25.40;53.80
24744;DHT22;12844;52.110;5.548;2023-07-13T04:43:12;25.50;53.90
24744;DHT22;12844;52.110;5.548;2023-07-13T04:45:38;25.40;53.80
24744;DHT22;12844;52.110;5.548;2023-07-13T04:48:04;25.40;53.80
24744;DHT22;12844;52.110;5.548;2023-07-13T04:50:30;25.40;53.80
24744;DHT22;12844;52.110;5.548;2023-07-13T04:52:55;25.40;53.80
24744;DHT22;12844;52.110;5.548;2023-07-13T04:55:21;25.40;53.80
24744;DHT22;12844;52.110;5.548;2023-07-13T04:57:47;25.40;53.70
24744;DHT22;12844;52.110;5.548;2023-07-13T05:00:14;25.40;53.80
24744;DHT22;12844;52.110;5.548;2023-07-13T05:02:43;25.50;53.70
24744;DHT22;12844;52.110;5.548;2023-07-13T05:05:09;25.40;53.70
24744;DHT22;12844;52.110;5.548;2023-07-13T05:07:34;25.40;53.70
24744;DHT22;12844;52.110;5.548;2023-07-13T05:10:00;25.40;53.70
24744;DHT22;12844;52.110;5.548;2023-07-13T05:12:27;25.40;54.30
24744;DHT22;12844;52.110;5.548;2023-07-13T05:14:52;25.40;53.60
24744;DHT22;12844;52.110;5.548;2023-07-13T05:17:18;25.40;53.60
24744;DHT22;12844;52.110;5.548;2023-07-13T05:19:44;25.40;53.60
24744;DHT22;12844;52.110;5.548;2023-07-13T05:22:09;25.40;53.50
24744;DHT22;12844;52.110;5.548;2023-07-13T05:24:35;25.40;53.50
24744;DHT22;12844;52.110;5.548;2023-07-13T05:27:01;25.40;53.50
24744;DHT22;12844;52.110;5.548;2023-07-13T05:29:27;25.40;53.50
24744;DHT22;12844;52.110;5.548;2023-07-13T05:31:53;25.40;53.50
24744;DHT22;12844;52.110;5.548;2023-07-13T05:34:18;25.40;53.40
24744;DHT22;12844;52.110;5.548;2023-07-13T05:36:44;25.40;53.40
24744;DHT22;12844;52.110;5.548;2023-07-13T05:39:10;25.40;53.30
24744;DHT22;12844;52.110;5.548;2023-07-13T05:41:37;25.40;53.30
24744;DHT22;12844;52.110;5.548;2023-07-13T05:44:03;25.40;53.30
24744;DHT22;12844;52.110;5.548;2023-07-13T05:46:28;25.40;53.20
24744;DHT22;12844;52.110;5.548;2023-07-13T05:48:55;25.40;53.20
24744;DHT22;12844;52.110;5.548;2023-07-13T05:51:21;25.40;53.20
24744;DHT22;12844;52.110;5.548;2023-07-13T05:53:46;25.40;53.20
24744;DHT22;12844;52.110;5.548;2023-07-13T05:56:12;25.40;53.20
24744;DHT22;12844;52.110;5.548;2023-07-13T05:58:38;25.40;53.20
24744;DHT22;12844;52.110;5.548;2023-07-13T06:01:08;25.40;53.20
24744;DHT22;12844;52.110;5.548;2023-07-13T06:03:34;25.40;53.20
24744;DHT22;12844;52.110;5.548;2023-07-13T06:06:00;25.40;53.20
24744;DHT22;12844;52.110;5.548;2023-07-13T06:08:27;25.40;53.20
24744;DHT22;12844;52.110;5.548;2023-07-13T06:10:53;25.40;53.20
24744;DHT22;12844;52.110;5.548;2023-07-13T06:13:18;25.40;53.20
24744;DHT22;12844;52.110;5.548;2023-07-13T06:15:49;25.40;53.30
24744;DHT22;12844;52.110;5.548;2023-07-13T06:18:15;25.50;53.50
24744;DHT22;12844;52.110;5.548;2023-07-13T06:20:40;25.50;53.40
24744;DHT22;12844;52.110;5.548;2023-07-13T06:23:06;25.40;53.30
24744;DHT22;12844;52.110;5.548;2023-07-13T06:25:32;25.40;53.20
24744;DHT22;12844;52.110;5.548;2023-07-13T06:27:57;25.40;53.20
24744;DHT22;12844;52.110;5.548;2023-07-13T06:30:23;25.40;53.20
24744;DHT22;12844;52.110;5.548;2023-07-13T06:32:49;25.40;53.30
24744;DHT22;12844;52.110;5.548;2023-07-13T06:35:15;25.40;53.30
24744;DHT22;12844;52.110;5.548;2023-07-13T06:37:40;25.40;53.30
24744;DHT22;12844;52.110;5.548;2023-07-13T06:40:07;25.40;53.30
24744;DHT22;12844;52.110;5.548;2023-07-13T06:42:33;25.40;53.40
24744;DHT22;12844;52.110;5.548;2023-07-13T06:44:58;25.40;53.30
24744;DHT22;12844;52.110;5.548;2023-07-13T06:47:24;25.40;53.20
24744;DHT22;12844;52.110;5.548;2023-07-13T06:49:50;25.40;53.40
24744;DHT22;12844;52.110;5.548;2023-07-13T06:52:15;25.40;53.40
24744;DHT22;12844;52.110;5.548;2023-07-13T06:54:41;25.40;53.50
24744;DHT22;12844;52.110;5.548;2023-07-13T06:57:06;25.40;53.40
24744;DHT22;12844;52.110;5.548;2023-07-13T06:59:32;25.40;53.30
24744;DHT22;12844;52.110;5.548;2023-07-13T07:01:58;25.50;53.50
24744;DHT22;12844;52.110;5.548;2023-07-13T07:04:24;25.40;53.50
24744;DHT22;12844;52.110;5.548;2023-07-13T07:06:49;25.50;53.60
24744;DHT22;12844;52.110;5.548;2023-07-13T07:09:15;25.50;53.70
24744;DHT22;12844;52.110;5.548;2023-07-13T07:11:42;25.50;53.60
24744;DHT22;12844;52.110;5.548;2023-07-13T07:14:08;25.50;53.60
24744;DHT22;12844;52.110;5.548;2023-07-13T07:16:33;25.40;54.20
24744;DHT22;12844;52.110;5.548;2023-07-13T07:18:59;25.50;53.70
24744;DHT22;12844;52.110;5.548;2023-07-13T07:21:25;25.50;53.60
24744;DHT22;12844;52.110;5.548;2023-07-13T07:23:51;25.40;53.50
24744;DHT22;12844;52.110;5.548;2023-07-13T07:26:17;25.40;53.50
24744;DHT22;12844;52.110;5.548;2023-07-13T07:28:43;25.50;53.70
24744;DHT22;12844;52.110;5.548;2023-07-13T07:31:09;25.50;53.70
24744;DHT22;12844;52.110;5.548;2023-07-13T07:33:35;25.50;53.70
24744;DHT22;12844;52.110;5.548;2023-07-13T07:36:01;25.50;53.80
24744;DHT22;12844;52.110;5.548;2023-07-13T07:38:27;25.50;53.70
24744;DHT22;12844;52.110;5.548;2023-07-13T07:40:53;25.50;53.70
24744;DHT22;12844;52.110;5.548;2023-07-13T07:43:19;25.50;53.70
24744;DHT22;12844;52.110;5.548;2023-07-13T07:45:45;25.50;53.70
24744;DHT22;12844;52.110;5.548;2023-07-13T07:48:12;25.50;53.70
24744;DHT22;12844;52.110;5.548;2023-07-13T07:50:37;25.50;53.40
24744;DHT22;12844;52.110;5.548;2023-07-13T07:53:05;25.50;53.30
24744;DHT22;12844;52.110;5.548;2023-07-13T07:55:33;25.50;53.20
24744;DHT22;12844;52.110;5.548;2023-07-13T07:58:00;25.50;53.20
24744;DHT22;12844;52.110;5.548;2023-07-13T08:00:26;25.50;53.20
24744;DHT22;12844;52.110;5.548;2023-07-13T08:02:52;25.60;53.20
24744;DHT22;12844;52.110;5.548;2023-07-13T08:05:18;25.60;53.10
24744;DHT22;12844;52.110;5.548;2023-07-13T08:07:44;25.60;53.00
24744;DHT22;12844;52.110;5.548;2023-07-13T08:10:09;25.70;53.10
24744;DHT22;12844;52.110;5.548;2023-07-13T08:12:36;25.60;53.10
24744;DHT22;12844;52.110;5.548;2023-07-13T08:15:03;25.60;53.10
24744;DHT22;12844;52.110;5.548;2023-07-13T08:17:29;25.60;53.00
24744;DHT22;12844;52.110;5.548;2023-07-13T08:19:55;25.60;52.70
24744;DHT22;12844;52.110;5.548;2023-07-13T08:22:21;25.60;52.60
24744;DHT22;12844;52.110;5.548;2023-07-13T08:24:46;25.60;52.50
24744;DHT22;12844;52.110;5.548;2023-07-13T08:27:13;25.60;52.50
24744;DHT22;12844;52.110;5.548;2023-07-13T08:29:39;25.60;52.40
24744;DHT22;12844;52.110;5.548;2023-07-13T08:32:06;25.60;52.40
24744;DHT22;12844;52.110;5.548;2023-07-13T08:34:35;25.60;52.30
24744;DHT22;12844;52.110;5.548;2023-07-13T08:37:02;25.60;52.20
24744;DHT22;12844;52.110;5.548;2023-07-13T08:39:30;25.70;52.20
24744;DHT22;12844;52.110;5.548;2023-07-13T08:44:53;25.70;52.00
24744;DHT22;12844;52.110;5.548;2023-07-13T08:47:24;25.80;52.00
24744;DHT22;12844;52.110;5.548;2023-07-13T08:49:50;25.80;51.90
24744;DHT22;12844;52.110;5.548;2023-07-13T08:52:28;25.70;51.80
24744;DHT22;12844;52.110;5.548;2023-07-13T08:54:56;25.70;51.80
24744;DHT22;12844;52.110;5.548;2023-07-13T08:57:33;25.70;51.70
24744;DHT22;12844;52.110;5.548;2023-07-13T08:59:59;25.70;51.70
24744;DHT22;12844;52.110;5.548;2023-07-13T09:02:51;25.80;51.60
24744;DHT22;12844;52.110;5.548;2023-07-13T09:05:31;25.70;51.50
24744;DHT22;12844;52.110;5.548;2023-07-13T09:08:26;25.70;51.60
24744;DHT22;12844;52.110;5.548;2023-07-13T09:16:21;25.70;50.90
24744;DHT22;12844;52.110;5.548;2023-07-13T09:18:49;25.70;51.10
24744;DHT22;12844;52.110;5.548;2023-07-13T09:21:31;25.60;51.10
24744;DHT22;12844;52.110;5.548;2023-07-13T09:24:24;25.70;51.10
24744;DHT22;12844;52.110;5.548;2023-07-13T09:26:45;25.60;51.10
24744;DHT22;12844;52.110;5.548;2023-07-13T09:29:14;25.70;50.90
24744;DHT22;12844;52.110;5.548;2023-07-13T09:31:47;25.70;50.80
24744;DHT22;12844;52.110;5.548;2023-07-13T09:34:15;25.70;50.80
24744;DHT22;12844;52.110;5.548;2023-07-13T09:36:40;25.60;50.80
24744;DHT22;12844;52.110;5.548;2023-07-13T09:42:37;25.70;50.80
24744;DHT22;12844;52.110;5.548;2023-07-13T09:44:55;25.70;50.80
24744;DHT22;12844;52.110;5.548;2023-07-13T09:47:27;25.70;50.80
24744;DHT22;12844;52.110;5.548;2023-07-13T09:50:06;25.70;50.60
24744;DHT22;12844;52.110;5.548;2023-07-13T09:55:27;25.70;50.70
24744;DHT22;12844;52.110;5.548;2023-07-13T09:57:54;25.70;50.70
24744;DHT22;12844;52.110;5.548;2023-07-13T10:00:23;25.70;50.80
24744;DHT22;12844;52.110;5.548;2023-07-13T10:02:58;25.70;50.80
24744;DHT22;12844;52.110;5.548;2023-07-13T10:05:24;25.70;50.70
24744;DHT22;12844;52.110;5.548;2023-07-13T10:07:51;25.60;50.80
24744;DHT22;12844;52.110;5.548;2023-07-13T10:10:21;25.60;50.80
24744;DHT22;12844;52.110;5.548;2023-07-13T10:12:48;25.60;50.90
24744;DHT22;12844;52.110;5.548;2023-07-13T10:15:20;25.60;51.00
24744;DHT22;12844;52.110;5.548;2023-07-13T10:17:46;25.50;51.10
24744;DHT22;12844;52.110;5.548;2023-07-13T10:20:13;25.50;51.20
24744;DHT22;12844;52.110;5.548;2023-07-13T10:25:34;25.60;51.90
24744;DHT22;12844;52.110;5.548;2023-07-13T10:30:43;25.60;51.50
24744;DHT22;12844;52.110;5.548;2023-07-13T10:33:13;25.60;51.60
24744;DHT22;12844;52.110;5.548;2023-07-13T10:35:43;25.60;51.70
24744;DHT22;12844;52.110;5.548;2023-07-13T10:38:27;25.60;51.80
24744;DHT22;12844;52.110;5.548;2023-07-13T10:41:06;25.80;51.80
24744;DHT22;12844;52.110;5.548;2023-07-13T10:43:36;25.80;51.90
24744;DHT22;12844;52.110;5.548;2023-07-13T10:46:06;25.90;52.00
24744;DHT22;12844;52.110;5.548;2023-07-13T10:48:34;25.90;52.00
24744;DHT22;12844;52.110;5.548;2023-07-13T10:51:04;26.00;52.20
24744;DHT22;12844;52.110;5.548;2023-07-13T10:53:33;26.00;52.30
24744;DHT22;12844;52.110;5.548;2023-07-13T10:56:30;25.90;52.30
24744;DHT22;12844;52.110;5.548;2023-07-13T11:04:44;25.80;52.40
24744;DHT22;12844;52.110;5.548;2023-07-13T11:07:23;25.90;52.50
24744;DHT22;12844;52.110;5.548;2023-07-13T11:09:50;25.90;52.70
24744;DHT22;12844;52.110;5.548;2023-07-13T11:23:06;26.30;52.30
24744;DHT22;12844;52.110;5.548;2023-07-13T11:25:35;26.40;52.30
24744;DHT22;12844;52.110;5.548;2023-07-13T11:30:46;26.50;52.20
24744;DHT22;12844;52.110;5.548;2023-07-13T11:36:03;26.40;52.20
24744;DHT22;12844;52.110;5.548;2023-07-13T11:38:41;26.40;52.50
24744;DHT22;12844;52.110;5.548;2023-07-13T11:41:19;26.40;52.50
24744;DHT22;12844;52.110;5.548;2023-07-13T11:43:51;26.40;52.50
24744;DHT22;12844;52.110;5.548;2023-07-13T11:48:47;26.40;52.70
24744;DHT22;12844;52.110;5.548;2023-07-13T11:51:34;26.40;52.80
24744;DHT22;12844;52.110;5.548;2023-07-13T11:54:51;26.40;52.70
24744;DHT22;12844;52.110;5.548;2023-07-13T11:59:43;26.30;52.90
24744;DHT22;12844;52.110;5.548;2023-07-13T12:02:24;26.20;53.00
24744;DHT22;12844;52.110;5.548;2023-07-13T12:04:51;26.20;53.00
24744;DHT22;12844;52.110;5.548;2023-07-13T12:07:19;26.20;53.00
24744;DHT22;12844;52.110;5.548;2023-07-13T12:09:45;26.10;53.00
24744;DHT22;12844;52.110;5.548;2023-07-13T12:12:17;26.10;53.00
24744;DHT22;12844;52.110;5.548;2023-07-13T12:14:43;26.10;53.00
24744;DHT22;12844;52.110;5.548;2023-07-13T12:17:20;26.00;53.20
24744;DHT22;12844;52.110;5.548;2023-07-13T12:19:48;26.00;53.10
24744;DHT22;12844;52.110;5.548;2023-07-13T12:22:15;26.00;53.30
24744;DHT22;12844;52.110;5.548;2023-07-13T12:24:42;26.00;53.40
24744;DHT22;12844;52.110;5.548;2023-07-13T12:27:24;26.00;53.50
24744;DHT22;12844;52.110;5.548;2023-07-13T12:30:04;26.00;53.30
24744;DHT22;12844;52.110;5.548;2023-07-13T12:32:31;26.00;53.50
24744;DHT22;12844;52.110;5.548;2023-07-13T12:35:14;26.00;53.70
24744;DHT22;12844;52.110;5.548;2023-07-13T12:37:45;26.00;53.50
24744;DHT22;12844;52.110;5.548;2023-07-13T12:40:20;26.20;53.50
24744;DHT22;12844;52.110;5.548;2023-07-13T12:42:48;26.20;53.40
24744;DHT22;12844;52.110;5.548;2023-07-13T12:45:23;26.20;53.20
24744;DHT22;12844;52.110;5.548;2023-07-13T12:47:56;26.10;53.20
24744;DHT22;12844;52.110;5.548;2023-07-13T12:50:40;26.10;53.20
24744;DHT22;12844;52.110;5.548;2023-07-13T12:53:11;26.10;53.30
24744;DHT22;12844;52.110;5.548;2023-07-13T12:55:50;26.10;53.30
24744;DHT22;12844;52.110;5.548;2023-07-13T13:00:55;26.00;53.40
24744;DHT22;12844;52.110;5.548;2023-07-13T13:05:47;26.00;53.50
24744;DHT22;12844;52.110;5.548;2023-07-13T13:08:13;26.00;53.40
24744;DHT22;12844;52.110;5.548;2023-07-13T13:10:39;26.00;53.40
24744;DHT22;12844;52.110;5.548;2023-07-13T13:13:05;26.00;53.50
24744;DHT22;12844;52.110;5.548;2023-07-13T13:15:31;26.00;53.50
24744;DHT22;12844;52.110;5.548;2023-07-13T13:17:57;26.00;53.20
24744;DHT22;12844;52.110;5.548;2023-07-13T13:20:24;26.00;52.60
24744;DHT22;12844;52.110;5.548;2023-07-13T13:22:51;26.00;52.60
24744;DHT22;12844;52.110;5.548;2023-07-13T13:25:17;26.10;52.40
24744;DHT22;12844;52.110;5.548;2023-07-13T13:27:44;26.00;52.10
24744;DHT22;12844;52.110;5.548;2023-07-13T13:32:41;26.00;52.10
24744;DHT22;12844;52.110;5.548;2023-07-13T13:35:19;26.10;52.20
24744;DHT22;12844;52.110;5.548;2023-07-13T13:37:46;26.20;52.10
24744;DHT22;12844;52.110;5.548;2023-07-13T13:40:17;26.10;52.00
24744;DHT22;12844;52.110;5.548;2023-07-13T13:42:43;26.10;52.10
24744;DHT22;12844;52.110;5.548;2023-07-13T13:45:12;26.10;52.10
24744;DHT22;12844;52.110;5.548;2023-07-13T13:47:38;26.10;52.10
24744;DHT22;12844;52.110;5.548;2023-07-13T13:50:21;26.10;52.20
24744;DHT22;12844;52.110;5.548;2023-07-13T13:52:50;26.10;52.20
24744;DHT22;12844;52.110;5.548;2023-07-13T13:55:19;26.10;52.30
24744;DHT22;12844;52.110;5.548;2023-07-13T13:57:46;26.10;52.20
24744;DHT22;12844;52.110;5.548;2023-07-13T14:00:12;26.10;52.10
24744;DHT22;12844;52.110;5.548;2023-07-13T14:02:41;26.10;52.80
24744;DHT22;12844;52.110;5.548;2023-07-13T14:05:13;26.10;52.20
24744;DHT22;12844;52.110;5.548;2023-07-13T14:07:38;26.10;52.30
24744;DHT22;12844;52.110;5.548;2023-07-13T14:10:16;26.10;52.20
24744;DHT22;12844;52.110;5.548;2023-07-13T14:12:45;26.20;52.20
24744;DHT22;12844;52.110;5.548;2023-07-13T14:17:46;26.10;52.10
24744;DHT22;12844;52.110;5.548;2023-07-13T14:20:16;26.10;52.20
24744;DHT22;12844;52.110;5.548;2023-07-13T14:22:42;26.10;52.20
24744;DHT22;12844;52.110;5.548;2023-07-13T14:25:11;26.10;52.20
24744;DHT22;12844;52.110;5.548;2023-07-13T14:27:38;26.10;52.20
24744;DHT22;12844;52.110;5.548;2023-07-13T14:30:15;26.10;52.30
24744;DHT22;12844;52.110;5.548;2023-07-13T14:32:41;26.10;52.30
24744;DHT22;12844;52.110;5.548;2023-07-13T14:35:12;26.10;52.40
24744;DHT22;12844;52.110;5.548;2023-07-13T14:37:39;26.10;52.20
24744;DHT22;12844;52.110;5.548;2023-07-13T14:40:17;26.10;52.20
24744;DHT22;12844;52.110;5.548;2023-07-13T14:42:43;26.10;52.20
24744;DHT22;12844;52.110;5.548;2023-07-13T14:45:16;26.10;52.40
24744;DHT22;12844;52.110;5.548;2023-07-13T14:47:43;26.10;52.50
24744;DHT22;12844;52.110;5.548;2023-07-13T14:50:21;26.00;53.10
24744;DHT22;12844;52.110;5.548;2023-07-13T14:52:47;26.00;52.50
24744;DHT22;12844;52.110;5.548;2023-07-13T14:55:15;26.00;52.50
24744;DHT22;12844;52.110;5.548;2023-07-13T14:57:41;26.00;52.60
24744;DHT22;12844;52.110;5.548;2023-07-13T15:00:16;26.00;52.50
24744;DHT22;12844;52.110;5.548;2023-07-13T15:02:45;26.00;52.50
24744;DHT22;12844;52.110;5.548;2023-07-13T15:05:19;26.00;52.60
24744;DHT22;12844;52.110;5.548;2023-07-13T15:07:46;26.00;52.60
24744;DHT22;12844;52.110;5.548;2023-07-13T15:10:17;26.10;52.70
24744;DHT22;12844;52.110;5.548;2023-07-13T15:12:43;26.00;52.70
24744;DHT22;12844;52.110;5.548;2023-07-13T15:15:09;26.00;52.70
24744;DHT22;12844;52.110;5.548;2023-07-13T15:20:32;26.00;52.70
24744;DHT22;12844;52.110;5.548;2023-07-13T15:22:58;26.00;52.70
24744;DHT22;12844;52.110;5.548;2023-07-13T15:25:26;26.00;52.80
24744;DHT22;12844;52.110;5.548;2023-07-13T15:27:53;26.00;52.90
24744;DHT22;12844;52.110;5.548;2023-07-13T15:30:19;26.00;52.90
24744;DHT22;12844;52.110;5.548;2023-07-13T15:32:46;26.00;52.90
24744;DHT22;12844;52.110;5.548;2023-07-13T15:35:25;26.00;52.90
24744;DHT22;12844;52.110;5.548;2023-07-13T15:37:51;26.00;52.90
24744;DHT22;12844;52.110;5.548;2023-07-13T15:40:18;26.00;52.90
24744;DHT22;12844;52.110;5.548;2023-07-13T15:42:45;26.00;52.90
24744;DHT22;12844;52.110;5.548;2023-07-13T15:45:19;26.00;53.00
24744;DHT22;12844;52.110;5.548;2023-07-13T15:47:46;26.00;53.00
24744;DHT22;12844;52.110;5.548;2023-07-13T15:50:18;26.00;53.00
24744;DHT22;12844;52.110;5.548;2023-07-13T15:52:47;26.00;53.00
24744;DHT22;12844;52.110;5.548;2023-07-13T15:55:14;26.00;53.00
24744;DHT22;12844;52.110;5.548;2023-07-13T15:57:46;26.00;53.00
24744;DHT22;12844;52.110;5.548;2023-07-13T16:00:18;26.00;53.10
24744;DHT22;12844;52.110;5.548;2023-07-13T16:02:46;26.00;53.40
24744;DHT22;12844;52.110;5.548;2023-07-13T16:05:12;26.00;53.10
24744;DHT22;12844;52.110;5.548;2023-07-13T16:07:37;26.00;53.20
24744;DHT22;12844;52.110;5.548;2023-07-13T16:10:04;26.00;53.20
24744;DHT22;12844;52.110;5.548;2023-07-13T16:12:29;26.00;53.20
24744;DHT22;12844;52.110;5.548;2023-07-13T16:14:55;26.00;53.20
24744;DHT22;12844;52.110;5.548;2023-07-13T16:17:21;26.00;53.20
24744;DHT22;12844;52.110;5.548;2023-07-13T16:19:46;26.00;53.20
24744;DHT22;12844;52.110;5.548;2023-07-13T16:22:17;26.00;53.20
24744;DHT22;12844;52.110;5.548;2023-07-13T16:24:43;26.00;53.20
24744;DHT22;12844;52.110;5.548;2023-07-13T16:27:11;26.00;53.20
24744;DHT22;12844;52.110;5.548;2023-07-13T16:29:38;26.00;53.20
24744;DHT22;12844;52.110;5.548;2023-07-13T16:32:07;26.00;53.20
24744;DHT22;12844;52.110;5.548;2023-07-13T16:34:35;26.00;53.20
24744;DHT22;12844;52.110;5.548;2023-07-13T16:37:03;26.00;53.20
24744;DHT22;12844;52.110;5.548;2023-07-13T16:39:30;26.00;53.20
24744;DHT22;12844;52.110;5.548;2023-07-13T16:41:58;26.00;53.20